»·PEaware :: UAL1399 KSFO-KRNO

UAL1399 :: KSFO-KRNO

FLIGHT INFORMATION

Flight Status: Arrived
Operator:
United Airlines
More flights by this operator :: More flights under this callsign
Pilot: David C. (16084)
Aircraft: AIRBUS A320
(A320)
More flights by this aircraft type
Origin: KSFO San Francisco Intl
United States
Destination: KRNO Reno/Tahoe Intl
United States
More flights between these airports :: More routes between these airports
Route: +SFO4 SAC SIER3
File this flight plan on PilotEdge
Remarks:
Altitude:
(Current/Filed)
25,000ft
Speed:
(Current/Filed)
474kts
Departed: 04-Jul-18 09:12 AM
Arrived: 04-Jul-18 09:50 AM
Distance/Time
Traveled:
166nm/0:38
Distance/Time
To Go:
Arrived

Flight Plot

Page will automatically refresh every two minutes.

Flight plan parsing failed; only flown route is shown


Map Options




Map Legend


Flown Route
Filed Route
Departure Airport
Arrival Airport
Navaid (VOR, NDB)
Fix

Horizontal Profiles

Position Reports

Time Latitude Longitude Heading Altitude Ground
Speed
04-Jul-18 08:28 37.619195 -122.383546 291 22ft 0kts
04-Jul-18 08:29 37.619195 -122.383546 291 22ft 0kts
04-Jul-18 08:30 37.619195 -122.383546 291 22ft 0kts
04-Jul-18 08:31 37.619195 -122.383546 291 22ft 0kts
04-Jul-18 08:32 37.619195 -122.383546 291 22ft 0kts
04-Jul-18 08:33 37.619195 -122.383546 291 22ft 0kts
04-Jul-18 08:34 37.619195 -122.383546 291 22ft 0kts
04-Jul-18 08:35 37.619195 -122.383546 291 22ft 0kts
04-Jul-18 08:36 37.619195 -122.383546 291 22ft 0kts
04-Jul-18 08:37 37.619195 -122.383546 291 22ft 0kts
04-Jul-18 08:38 37.619195 -122.383546 291 22ft 0kts
04-Jul-18 08:39 37.619195 -122.383546 291 22ft 0kts
04-Jul-18 08:40 37.619195 -122.383546 291 22ft 0kts
04-Jul-18 08:41 37.619195 -122.383546 291 22ft 0kts
04-Jul-18 08:42 37.619195 -122.383546 291 22ft 0kts
04-Jul-18 08:43 37.619195 -122.383546 291 22ft 0kts
04-Jul-18 08:44 37.619195 -122.383546 291 22ft 0kts
04-Jul-18 08:45 37.619195 -122.383546 291 22ft 0kts
04-Jul-18 08:46 37.619195 -122.383546 291 22ft 0kts
04-Jul-18 08:47 37.619195 -122.383546 291 22ft 0kts
04-Jul-18 08:48 37.619195 -122.383546 291 22ft 0kts
04-Jul-18 08:49 37.619195 -122.383546 291 22ft 0kts
04-Jul-18 08:50 37.619195 -122.383546 291 22ft 0kts
04-Jul-18 08:51 37.619195 -122.383546 291 22ft 0kts
04-Jul-18 08:52 37.619195 -122.383546 291 22ft 0kts
04-Jul-18 08:53 37.619195 -122.383546 291 22ft 0kts
04-Jul-18 08:54 37.619195 -122.383546 291 22ft 0kts
04-Jul-18 08:55 37.619195 -122.383546 291 22ft 0kts
04-Jul-18 08:56 37.619195 -122.383546 291 22ft 0kts
04-Jul-18 08:57 37.619017 -122.383031 316 22ft 2kts
04-Jul-18 08:58 37.618558 -122.382962 33 22ft 1kts
04-Jul-18 08:59 37.618454 -122.383036 29 22ft 0kts
04-Jul-18 09:00 37.618455 -122.383035 29 22ft 0kts
04-Jul-18 09:01 37.618455 -122.383035 29 22ft 0kts
04-Jul-18 09:02 37.618455 -122.383035 29 22ft 0kts
04-Jul-18 09:03 37.618455 -122.383035 29 22ft 0kts
04-Jul-18 09:04 37.618455 -122.383035 29 22ft 0kts
04-Jul-18 09:05 37.619089 -122.380681 119 22ft 17kts
04-Jul-18 09:06 37.616705 -122.374079 118 22ft 22kts
04-Jul-18 09:07 37.613169 -122.366619 118 22ft 27kts
04-Jul-18 09:08 37.610572 -122.359691 64 22ft 14kts
04-Jul-18 09:09 37.610930 -122.359203 34 22ft 0kts
04-Jul-18 09:10 37.610930 -122.359203 34 22ft 0kts
04-Jul-18 09:11 37.612025 -122.359122 297 22ft 0kts
04-Jul-18 09:12 37.623544 -122.386308 293 565ft 184kts
04-Jul-18 09:13 37.658151 -122.443559 291 3730ft 219kts
04-Jul-18 09:14 37.683682 -122.512754 291 7150ft 225kts
04-Jul-18 09:15 37.714822 -122.580129 330 9951ft 238kts
04-Jul-18 09:16 37.768388 -122.539776 85 12085ft 293kts
04-Jul-18 09:17 37.765828 -122.435181 94 15129ft 310kts
04-Jul-18 09:18 37.801478 -122.339121 43 17573ft 340kts
04-Jul-18 09:19 37.870243 -122.256699 43 20034ft 355kts
04-Jul-18 09:20 37.942823 -122.168570 43 21996ft 378kts
04-Jul-18 09:21 38.019527 -122.074951 43 23972ft 392kts
04-Jul-18 09:22 38.099801 -121.976637 43 25088ft 424kts
04-Jul-18 09:24 38.188568 -121.867455 43 25057ft 473kts
04-Jul-18 09:25 38.286178 -121.747086 43 25047ft 501kts
04-Jul-18 09:26 38.385947 -121.623617 43 25058ft 502kts
04-Jul-18 09:27 38.485620 -121.498643 44 25063ft 502kts
04-Jul-18 09:28 38.583783 -121.373092 44 25062ft 501kts
04-Jul-18 09:29 38.680873 -121.248635 45 25056ft 501kts
04-Jul-18 09:30 38.778999 -121.122340 45 25068ft 502kts
04-Jul-18 09:31 38.877413 -120.995145 45 25077ft 505kts
04-Jul-18 09:32 38.976053 -120.867127 45 25105ft 508kts
04-Jul-18 09:33 39.076044 -120.736796 45 24827ft 514kts
04-Jul-18 09:34 39.173900 -120.608779 45 22966ft 501kts
04-Jul-18 09:35 39.269795 -120.482763 45 20170ft 485kts
04-Jul-18 09:36 39.362154 -120.360883 45 17366ft 468kts
04-Jul-18 09:37 39.445254 -120.242582 51 16133ft 414kts
04-Jul-18 09:38 39.513308 -120.138565 51 16094ft 345kts
04-Jul-18 09:39 39.571649 -120.048888 51 15498ft 307kts
04-Jul-18 09:40 39.628538 -119.975336 13 14619ft 288kts
04-Jul-18 09:41 39.704629 -119.954522 10 13650ft 277kts
04-Jul-18 09:42 39.778591 -119.933868 16 12500ft 257kts
04-Jul-18 09:43 39.822178 -119.872674 79 10819ft 234kts
04-Jul-18 09:44 39.809011 -119.797413 135 9112ft 218kts
04-Jul-18 09:45 39.756599 -119.769442 191 7619ft 205kts
04-Jul-18 09:46 39.699845 -119.768564 183 7535ft 197kts
04-Jul-18 09:47 39.646284 -119.768908 183 7185ft 186kts
04-Jul-18 09:48 39.597149 -119.768976 182 6171ft 175kts
04-Jul-18 09:49 39.550724 -119.769118 182 5268ft 156kts
04-Jul-18 09:50 39.508225 -119.769234 181 4432ft 151kts
04-Jul-18 09:51 39.489366 -119.769664 228 4424ft 18kts
04-Jul-18 09:52 39.493391 -119.771558 0 4424ft 25kts
04-Jul-18 09:53 39.500515 -119.771540 358 4424ft 25kts
04-Jul-18 09:54 39.505918 -119.772602 269 4424ft 15kts
04-Jul-18 09:55 39.505217 -119.773170 180 4424ft 0kts
04-Jul-18 09:56 39.505217 -119.773170 180 4424ft 0kts

Navigation Log

Ident Type
Flight plan parsing failed, navigation log unavailable